sensor_id;sensor_type;location;lat;lon;timestamp;P1;durP1;ratioP1;P2;durP2;ratioP2
4001;SDS011;2015;48.670;9.060;2023-02-15T00:02:15;30.43;;;20.30;;
4001;SDS011;2015;48.670;9.060;2023-02-15T00:04:47;39.00;;;25.97;;
4001;SDS011;2015;48.670;9.060;2023-02-15T00:07:19;44.33;;;25.00;;
4001;SDS011;2015;48.670;9.060;2023-02-15T00:09:51;43.53;;;26.45;;
4001;SDS011;2015;48.670;9.060;2023-02-15T00:12:23;39.43;;;24.70;;
4001;SDS011;2015;48.670;9.060;2023-02-15T00:14:55;39.57;;;22.10;;
4001;SDS011;2015;48.670;9.060;2023-02-15T00:17:27;33.70;;;23.47;;
4001;SDS011;2015;48.670;9.060;2023-02-15T00:20:00;33.13;;;21.43;;
4001;SDS011;2015;48.670;9.060;2023-02-15T00:22:31;35.77;;;24.67;;
4001;SDS011;2015;48.670;9.060;2023-02-15T00:25:03;36.73;;;20.93;;
4001;SDS011;2015;48.670;9.060;2023-02-15T00:27:35;32.90;;;20.03;;
4001;SDS011;2015;48.670;9.060;2023-02-15T00:30:07;35.70;;;21.33;;
4001;SDS011;2015;48.670;9.060;2023-02-15T00:32:40;38.50;;;22.63;;
4001;SDS011;2015;48.670;9.060;2023-02-15T00:35:11;39.80;;;24.77;;
4001;SDS011;2015;48.670;9.060;2023-02-15T00:37:43;37.07;;;24.63;;
4001;SDS011;2015;48.670;9.060;2023-02-15T00:40:15;43.80;;;22.30;;
4001;SDS011;2015;48.670;9.060;2023-02-15T00:42:47;37.97;;;21.80;;
4001;SDS011;2015;48.670;9.060;2023-02-15T00:45:18;39.30;;;22.93;;
4001;SDS011;2015;48.670;9.060;2023-02-15T00:47:52;37.23;;;23.03;;
4001;SDS011;2015;48.670;9.060;2023-02-15T00:50:24;38.30;;;24.47;;
4001;SDS011;2015;48.670;9.060;2023-02-15T00:52:56;41.63;;;25.03;;
4001;SDS011;2015;48.670;9.060;2023-02-15T00:55:27;37.27;;;24.00;;
4001;SDS011;2015;48.670;9.060;2023-02-15T00:57:59;34.23;;;23.23;;
4001;SDS011;2015;48.670;9.060;2023-02-15T01:00:31;40.50;;;24.23;;
4001;SDS011;2015;48.670;9.060;2023-02-15T01:03:03;39.33;;;24.30;;
4001;SDS011;2015;48.670;9.060;2023-02-15T01:05:35;47.10;;;25.17;;
4001;SDS011;2015;48.670;9.060;2023-02-15T01:08:07;38.13;;;24.77;;
4001;SDS011;2015;48.670;9.060;2023-02-15T01:10:39;41.93;;;25.90;;
4001;SDS011;2015;48.670;9.060;2023-02-15T01:13:11;46.23;;;25.13;;
4001;SDS011;2015;48.670;9.060;2023-02-15T01:15:44;38.17;;;24.70;;
4001;SDS011;2015;48.670;9.060;2023-02-15T01:18:17;40.30;;;24.43;;
4001;SDS011;2015;48.670;9.060;2023-02-15T01:20:48;37.40;;;23.20;;
4001;SDS011;2015;48.670;9.060;2023-02-15T01:23:20;40.70;;;24.50;;
4001;SDS011;2015;48.670;9.060;2023-02-15T01:25:52;37.77;;;23.73;;
4001;SDS011;2015;48.670;9.060;2023-02-15T01:28:24;44.30;;;24.07;;
4001;SDS011;2015;48.670;9.060;2023-02-15T01:30:56;46.27;;;27.40;;
4001;SDS011;2015;48.670;9.060;2023-02-15T01:33:28;38.73;;;24.07;;
4001;SDS011;2015;48.670;9.060;2023-02-15T01:35:59;46.67;;;23.43;;
4001;SDS011;2015;48.670;9.060;2023-02-15T01:38:32;44.03;;;26.13;;
4001;SDS011;2015;48.670;9.060;2023-02-15T01:41:05;42.20;;;25.40;;
4001;SDS011;2015;48.670;9.060;2023-02-15T01:43:59;38.27;;;24.07;;
4001;SDS011;2015;48.670;9.060;2023-02-15T01:46:36;39.70;;;23.63;;
4001;SDS011;2015;48.670;9.060;2023-02-15T01:49:12;34.50;;;24.30;;
4001;SDS011;2015;48.670;9.060;2023-02-15T01:51:48;38.43;;;24.37;;
4001;SDS011;2015;48.670;9.060;2023-02-15T01:54:22;40.70;;;24.80;;
4001;SDS011;2015;48.670;9.060;2023-02-15T01:57:03;43.13;;;25.20;;
4001;SDS011;2015;48.670;9.060;2023-02-15T01:59:43;31.43;;;21.87;;
4001;SDS011;2015;48.670;9.060;2023-02-15T02:02:18;37.27;;;23.50;;
4001;SDS011;2015;48.670;9.060;2023-02-15T02:04:59;37.73;;;23.43;;
4001;SDS011;2015;48.670;9.060;2023-02-15T02:07:42;41.20;;;23.67;;
4001;SDS011;2015;48.670;9.060;2023-02-15T02:10:18;40.20;;;23.30;;
4001;SDS011;2015;48.670;9.060;2023-02-15T02:12:54;44.10;;;25.13;;
4001;SDS011;2015;48.670;9.060;2023-02-15T02:15:53;42.37;;;25.87;;
4001;SDS011;2015;48.670;9.060;2023-02-15T02:27:33;42.73;;;25.50;;
4001;SDS011;2015;48.670;9.060;2023-02-15T02:34:08;37.30;;;24.47;;
4001;SDS011;2015;48.670;9.060;2023-02-15T02:36:49;37.50;;;23.63;;
4001;SDS011;2015;48.670;9.060;2023-02-15T02:42:32;44.70;;;26.00;;
4001;SDS011;2015;48.670;9.060;2023-02-15T02:45:16;34.07;;;21.30;;
4001;SDS011;2015;48.670;9.060;2023-02-15T02:47:58;35.77;;;24.10;;
4001;SDS011;2015;48.670;9.060;2023-02-15T02:50:34;34.07;;;22.47;;
4001;SDS011;2015;48.670;9.060;2023-02-15T02:53:09;36.20;;;22.83;;
4001;SDS011;2015;48.670;9.060;2023-02-15T02:58:39;39.30;;;21.87;;
4001;SDS011;2015;48.670;9.060;2023-02-15T03:01:39;30.70;;;20.90;;
4001;SDS011;2015;48.670;9.060;2023-02-15T03:04:17;43.07;;;22.50;;
4001;SDS011;2015;48.670;9.060;2023-02-15T03:06:58;38.40;;;22.57;;
4001;SDS011;2015;48.670;9.060;2023-02-15T03:09:41;43.83;;;25.73;;
4001;SDS011;2015;48.670;9.060;2023-02-15T03:12:17;37.13;;;24.53;;
4001;SDS011;2015;48.670;9.060;2023-02-15T03:15:05;32.93;;;22.70;;
4001;SDS011;2015;48.670;9.060;2023-02-15T03:17:44;40.00;;;23.77;;
4001;SDS011;2015;48.670;9.060;2023-02-15T03:20:23;39.80;;;23.80;;
4001;SDS011;2015;48.670;9.060;2023-02-15T03:23:00;45.07;;;24.43;;
4001;SDS011;2015;48.670;9.060;2023-02-15T03:25:42;42.58;;;26.85;;
4001;SDS011;2015;48.670;9.060;2023-02-15T03:28:22;36.73;;;23.47;;
4001;SDS011;2015;48.670;9.060;2023-02-15T03:30:59;39.20;;;22.77;;
4001;SDS011;2015;48.670;9.060;2023-02-15T03:33:34;37.93;;;23.90;;
4001;SDS011;2015;48.670;9.060;2023-02-15T03:36:13;38.70;;;24.07;;
4001;SDS011;2015;48.670;9.060;2023-02-15T03:38:59;40.47;;;23.93;;
4001;SDS011;2015;48.670;9.060;2023-02-15T03:41:53;32.70;;;22.63;;
4001;SDS011;2015;48.670;9.060;2023-02-15T03:44:33;42.53;;;23.77;;
4001;SDS011;2015;48.670;9.060;2023-02-15T03:47:16;39.30;;;25.50;;
4001;SDS011;2015;48.670;9.060;2023-02-15T03:49:59;37.33;;;22.73;;
4001;SDS011;2015;48.670;9.060;2023-02-15T03:52:57;35.47;;;22.80;;
4001;SDS011;2015;48.670;9.060;2023-02-15T03:55:31;37.40;;;21.80;;
4001;SDS011;2015;48.670;9.060;2023-02-15T03:58:05;33.00;;;21.07;;
4001;SDS011;2015;48.670;9.060;2023-02-15T04:01:01;37.37;;;21.97;;
4001;SDS011;2015;48.670;9.060;2023-02-15T04:04:01;39.70;;;22.63;;
4001;SDS011;2015;48.670;9.060;2023-02-15T04:06:38;32.50;;;21.70;;
4001;SDS011;2015;48.670;9.060;2023-02-15T04:09:11;33.30;;;21.37;;
4001;SDS011;2015;48.670;9.060;2023-02-15T04:12:01;30.40;;;22.03;;
4001;SDS011;2015;48.670;9.060;2023-02-15T04:14:33;38.33;;;23.43;;
4001;SDS011;2015;48.670;9.060;2023-02-15T04:17:24;33.23;;;23.33;;
4001;SDS011;2015;48.670;9.060;2023-02-15T04:19:55;37.83;;;23.83;;
4001;SDS011;2015;48.670;9.060;2023-02-15T04:22:46;41.20;;;23.40;;
4001;SDS011;2015;48.670;9.060;2023-02-15T04:25:36;35.30;;;22.37;;
4001;SDS011;2015;48.670;9.060;2023-02-15T04:28:08;34.07;;;21.03;;
4001;SDS011;2015;48.670;9.060;2023-02-15T04:30:40;37.13;;;23.50;;
4001;SDS011;2015;48.670;9.060;2023-02-15T04:33:11;37.00;;;23.30;;
4001;SDS011;2015;48.670;9.060;2023-02-15T04:35:43;31.07;;;22.73;;
4001;SDS011;2015;48.670;9.060;2023-02-15T04:38:16;34.47;;;21.63;;
4001;SDS011;2015;48.670;9.060;2023-02-15T04:40:51;38.67;;;24.97;;
4001;SDS011;2015;48.670;9.060;2023-02-15T04:43:23;35.83;;;23.97;;
4001;SDS011;2015;48.670;9.060;2023-02-15T04:45:55;53.10;;;24.40;;
4001;SDS011;2015;48.670;9.060;2023-02-15T04:48:27;35.90;;;23.73;;
4001;SDS011;2015;48.670;9.060;2023-02-15T04:50:59;37.40;;;23.77;;
4001;SDS011;2015;48.670;9.060;2023-02-15T04:53:35;34.17;;;22.17;;
4001;SDS011;2015;48.670;9.060;2023-02-15T04:56:07;40.03;;;24.17;;
4001;SDS011;2015;48.670;9.060;2023-02-15T04:58:39;37.67;;;22.17;;
4001;SDS011;2015;48.670;9.060;2023-02-15T05:01:13;35.60;;;22.73;;
4001;SDS011;2015;48.670;9.060;2023-02-15T05:03:46;35.90;;;20.73;;
4001;SDS011;2015;48.670;9.060;2023-02-15T05:06:18;31.47;;;22.20;;
4001;SDS011;2015;48.670;9.060;2023-02-15T05:08:49;33.73;;;20.80;;
4001;SDS011;2015;48.670;9.060;2023-02-15T05:11:21;44.30;;;23.67;;
4001;SDS011;2015;48.670;9.060;2023-02-15T05:13:53;35.50;;;23.30;;
4001;SDS011;2015;48.670;9.060;2023-02-15T05:16:25;36.43;;;21.93;;
4001;SDS011;2015;48.670;9.060;2023-02-15T05:18:58;30.30;;;21.07;;
4001;SDS011;2015;48.670;9.060;2023-02-15T05:21:31;36.60;;;22.03;;
4001;SDS011;2015;48.670;9.060;2023-02-15T05:24:03;38.77;;;24.37;;
4001;SDS011;2015;48.670;9.060;2023-02-15T05:26:55;30.13;;;19.17;;
4001;SDS011;2015;48.670;9.060;2023-02-15T05:29:46;29.37;;;20.57;;
4001;SDS011;2015;48.670;9.060;2023-02-15T05:32:17;36.13;;;20.87;;
4001;SDS011;2015;48.670;9.060;2023-02-15T05:34:49;33.10;;;22.45;;
4001;SDS011;2015;48.670;9.060;2023-02-15T05:37:21;35.67;;;20.80;;
4001;SDS011;2015;48.670;9.060;2023-02-15T05:39:53;36.73;;;22.50;;
4001;SDS011;2015;48.670;9.060;2023-02-15T05:42:24;31.00;;;20.47;;
4001;SDS011;2015;48.670;9.060;2023-02-15T05:44:56;26.80;;;19.23;;
4001;SDS011;2015;48.670;9.060;2023-02-15T05:47:28;31.60;;;21.30;;
4001;SDS011;2015;48.670;9.060;2023-02-15T05:50:00;28.43;;;17.83;;
4001;SDS011;2015;48.670;9.060;2023-02-15T05:52:32;23.77;;;18.20;;
4001;SDS011;2015;48.670;9.060;2023-02-15T05:55:04;33.70;;;19.53;;
4001;SDS011;2015;48.670;9.060;2023-02-15T05:57:36;23.43;;;17.57;;
4001;SDS011;2015;48.670;9.060;2023-02-15T06:00:08;27.70;;;18.87;;
4001;SDS011;2015;48.670;9.060;2023-02-15T06:02:41;29.00;;;19.90;;
4001;SDS011;2015;48.670;9.060;2023-02-15T06:05:13;26.47;;;18.20;;
4001;SDS011;2015;48.670;9.060;2023-02-15T06:07:45;32.93;;;19.87;;
4001;SDS011;2015;48.670;9.060;2023-02-15T06:10:16;33.97;;;19.93;;
4001;SDS011;2015;48.670;9.060;2023-02-15T06:12:48;26.83;;;19.67;;
4001;SDS011;2015;48.670;9.060;2023-02-15T06:15:20;34.30;;;19.77;;
4001;SDS011;2015;48.670;9.060;2023-02-15T06:17:52;32.60;;;18.43;;
4001;SDS011;2015;48.670;9.060;2023-02-15T06:20:23;29.97;;;19.43;;
4001;SDS011;2015;48.670;9.060;2023-02-15T06:22:55;33.80;;;19.63;;
4001;SDS011;2015;48.670;9.060;2023-02-15T06:25:27;31.33;;;18.27;;
4001;SDS011;2015;48.670;9.060;2023-02-15T06:28:00;27.73;;;18.50;;
4001;SDS011;2015;48.670;9.060;2023-02-15T06:30:31;31.08;;;20.02;;
4001;SDS011;2015;48.670;9.060;2023-02-15T06:33:03;33.00;;;20.63;;
4001;SDS011;2015;48.670;9.060;2023-02-15T06:35:35;28.60;;;18.63;;
4001;SDS011;2015;48.670;9.060;2023-02-15T06:38:07;27.70;;;18.07;;
4001;SDS011;2015;48.670;9.060;2023-02-15T06:40:39;29.97;;;18.40;;
4001;SDS011;2015;48.670;9.060;2023-02-15T06:43:11;27.23;;;17.50;;
4001;SDS011;2015;48.670;9.060;2023-02-15T06:45:42;29.73;;;18.13;;
4001;SDS011;2015;48.670;9.060;2023-02-15T06:48:14;24.80;;;17.00;;
4001;SDS011;2015;48.670;9.060;2023-02-15T06:50:46;26.53;;;17.20;;
4001;SDS011;2015;48.670;9.060;2023-02-15T06:53:18;35.17;;;18.30;;
4001;SDS011;2015;48.670;9.060;2023-02-15T06:55:49;32.50;;;18.40;;
4001;SDS011;2015;48.670;9.060;2023-02-15T06:58:21;27.40;;;16.67;;
4001;SDS011;2015;48.670;9.060;2023-02-15T07:00:53;25.80;;;17.60;;
4001;SDS011;2015;48.670;9.060;2023-02-15T07:03:25;31.80;;;20.80;;
4001;SDS011;2015;48.670;9.060;2023-02-15T07:05:57;34.90;;;19.50;;
4001;SDS011;2015;48.670;9.060;2023-02-15T07:08:30;26.90;;;18.47;;
4001;SDS011;2015;48.670;9.060;2023-02-15T07:11:03;25.90;;;17.87;;
4001;SDS011;2015;48.670;9.060;2023-02-15T07:13:55;25.50;;;16.97;;
4001;SDS011;2015;48.670;9.060;2023-02-15T07:16:27;22.10;;;14.83;;
4001;SDS011;2015;48.670;9.060;2023-02-15T07:18:59;21.80;;;15.90;;
4001;SDS011;2015;48.670;9.060;2023-02-15T07:21:31;19.67;;;15.77;;
4001;SDS011;2015;48.670;9.060;2023-02-15T07:24:02;25.92;;;16.50;;
4001;SDS011;2015;48.670;9.060;2023-02-15T07:26:34;29.93;;;16.87;;
4001;SDS011;2015;48.670;9.060;2023-02-15T07:29:06;29.70;;;17.33;;
4001;SDS011;2015;48.670;9.060;2023-02-15T07:31:38;30.50;;;15.70;;
4001;SDS011;2015;48.670;9.060;2023-02-15T07:34:09;26.53;;;16.70;;
4001;SDS011;2015;48.670;9.060;2023-02-15T07:36:42;22.93;;;15.37;;
4001;SDS011;2015;48.670;9.060;2023-02-15T07:39:15;25.77;;;16.93;;
4001;SDS011;2015;48.670;9.060;2023-02-15T07:41:47;23.00;;;16.60;;
4001;SDS011;2015;48.670;9.060;2023-02-15T07:44:19;32.27;;;19.47;;
4001;SDS011;2015;48.670;9.060;2023-02-15T07:46:51;38.87;;;23.07;;
4001;SDS011;2015;48.670;9.060;2023-02-15T07:49:22;38.03;;;22.27;;
4001;SDS011;2015;48.670;9.060;2023-02-15T07:51:54;40.93;;;24.50;;
4001;SDS011;2015;48.670;9.060;2023-02-15T07:54:26;41.57;;;25.87;;
4001;SDS011;2015;48.670;9.060;2023-02-15T07:56:58;42.17;;;24.50;;
4001;SDS011;2015;48.670;9.060;2023-02-15T07:59:31;33.67;;;23.10;;
4001;SDS011;2015;48.670;9.060;2023-02-15T08:02:03;42.10;;;23.30;;
4001;SDS011;2015;48.670;9.060;2023-02-15T08:04:40;35.70;;;23.33;;
4001;SDS011;2015;48.670;9.060;2023-02-15T08:07:12;40.10;;;24.47;;
4001;SDS011;2015;48.670;9.060;2023-02-15T08:09:44;36.10;;;25.10;;
4001;SDS011;2015;48.670;9.060;2023-02-15T08:12:16;42.40;;;22.80;;
4001;SDS011;2015;48.670;9.060;2023-02-15T08:14:47;39.60;;;24.67;;
4001;SDS011;2015;48.670;9.060;2023-02-15T08:17:19;45.35;;;27.30;;
4001;SDS011;2015;48.670;9.060;2023-02-15T08:19:51;42.20;;;25.23;;
4001;SDS011;2015;48.670;9.060;2023-02-15T08:22:23;41.60;;;24.53;;
4001;SDS011;2015;48.670;9.060;2023-02-15T08:24:57;49.43;;;29.00;;
4001;SDS011;2015;48.670;9.060;2023-02-15T08:27:29;43.87;;;27.33;;
4001;SDS011;2015;48.670;9.060;2023-02-15T08:30:00;44.80;;;28.20;;
4001;SDS011;2015;48.670;9.060;2023-02-15T08:32:32;45.90;;;29.30;;
4001;SDS011;2015;48.670;9.060;2023-02-15T08:35:04;41.93;;;26.63;;
4001;SDS011;2015;48.670;9.060;2023-02-15T08:37:36;41.20;;;27.90;;
4001;SDS011;2015;48.670;9.060;2023-02-15T08:40:08;39.83;;;25.57;;
4001;SDS011;2015;48.670;9.060;2023-02-15T08:42:40;43.27;;;28.77;;
4001;SDS011;2015;48.670;9.060;2023-02-15T08:45:12;36.57;;;24.80;;
4001;SDS011;2015;48.670;9.060;2023-02-15T08:47:43;33.23;;;24.83;;
4001;SDS011;2015;48.670;9.060;2023-02-15T08:50:15;43.40;;;25.90;;
4001;SDS011;2015;48.670;9.060;2023-02-15T08:52:47;35.60;;;22.80;;
4001;SDS011;2015;48.670;9.060;2023-02-15T08:55:19;38.67;;;24.10;;
4001;SDS011;2015;48.670;9.060;2023-02-15T08:57:51;35.63;;;22.87;;
4001;SDS011;2015;48.670;9.060;2023-02-15T09:00:26;38.33;;;24.13;;
4001;SDS011;2015;48.670;9.060;2023-02-15T09:02:59;33.87;;;22.70;;
4001;SDS011;2015;48.670;9.060;2023-02-15T09:05:31;36.97;;;22.83;;
4001;SDS011;2015;48.670;9.060;2023-02-15T09:08:03;33.93;;;22.60;;
4001;SDS011;2015;48.670;9.060;2023-02-15T09:10:34;35.53;;;22.93;;
4001;SDS011;2015;48.670;9.060;2023-02-15T09:13:06;35.80;;;22.67;;
4001;SDS011;2015;48.670;9.060;2023-02-15T09:15:38;34.23;;;25.20;;
4001;SDS011;2015;48.670;9.060;2023-02-15T09:18:10;33.50;;;24.27;;
4001;SDS011;2015;48.670;9.060;2023-02-15T09:20:43;32.00;;;22.40;;
4001;SDS011;2015;48.670;9.060;2023-02-15T09:23:16;32.30;;;21.90;;
4001;SDS011;2015;48.670;9.060;2023-02-15T09:26:00;30.73;;;22.60;;
4001;SDS011;2015;48.670;9.060;2023-02-15T09:28:34;32.00;;;21.60;;
4001;SDS011;2015;48.670;9.060;2023-02-15T09:33:39;30.53;;;22.00;;
4001;SDS011;2015;48.670;9.060;2023-02-15T09:38:57;30.47;;;20.00;;
4001;SDS011;2015;48.670;9.060;2023-02-15T09:44:35;27.20;;;20.77;;
4001;SDS011;2015;48.670;9.060;2023-02-15T10:01:40;17.87;;;16.00;;
4001;SDS011;2015;48.670;9.060;2023-02-15T10:10:51;21.43;;;17.03;;
4001;SDS011;2015;48.670;9.060;2023-02-15T10:14:03;21.33;;;17.63;;
4001;SDS011;2015;48.670;9.060;2023-02-15T10:20:03;19.27;;;17.13;;
4001;SDS011;2015;48.670;9.060;2023-02-15T10:28:57;17.13;;;15.37;;
4001;SDS011;2015;48.670;9.060;2023-02-15T10:31:50;17.50;;;14.40;;
4001;SDS011;2015;48.670;9.060;2023-02-15T10:57:38;13.60;;;12.17;;
4001;SDS011;2015;48.670;9.060;2023-02-15T11:00:50;14.00;;;12.60;;
4001;SDS011;2015;48.670;9.060;2023-02-15T11:06:26;14.00;;;12.63;;
4001;SDS011;2015;48.670;9.060;2023-02-15T11:09:02;15.70;;;12.30;;
4001;SDS011;2015;48.670;9.060;2023-02-15T11:11:45;13.80;;;12.20;;
4001;SDS011;2015;48.670;9.060;2023-02-15T11:14:34;13.60;;;12.23;;
4001;SDS011;2015;48.670;9.060;2023-02-15T11:17:17;12.83;;;11.53;;
4001;SDS011;2015;48.670;9.060;2023-02-15T11:19:55;12.60;;;11.33;;
4001;SDS011;2015;48.670;9.060;2023-02-15T11:22:35;10.90;;;9.80;;
4001;SDS011;2015;48.670;9.060;2023-02-15T11:25:29;12.23;;;11.00;;
4001;SDS011;2015;48.670;9.060;2023-02-15T11:28:04;12.47;;;11.27;;
4001;SDS011;2015;48.670;9.060;2023-02-15T11:30:51;14.77;;;10.50;;
4001;SDS011;2015;48.670;9.060;2023-02-15T11:33:28;12.18;;;10.82;;
4001;SDS011;2015;48.670;9.060;2023-02-15T11:36:09;13.27;;;11.27;;
4001;SDS011;2015;48.670;9.060;2023-02-15T11:38:49;11.70;;;10.50;;
4001;SDS011;2015;48.670;9.060;2023-02-15T11:41:29;10.77;;;9.87;;
4001;SDS011;2015;48.670;9.060;2023-02-15T11:46:37;11.47;;;9.37;;
4001;SDS011;2015;48.670;9.060;2023-02-15T11:49:19;9.80;;;8.83;;
4001;SDS011;2015;48.670;9.060;2023-02-15T11:52:00;12.40;;;9.80;;
4001;SDS011;2015;48.670;9.060;2023-02-15T11:54:36;9.38;;;8.30;;
4001;SDS011;2015;48.670;9.060;2023-02-15T11:57:23;11.63;;;8.30;;
4001;SDS011;2015;48.670;9.060;2023-02-15T12:00:06;10.07;;;8.70;;
4001;SDS011;2015;48.670;9.060;2023-02-15T12:02:46;10.30;;;8.07;;
4001;SDS011;2015;48.670;9.060;2023-02-15T12:05:22;10.97;;;9.30;;
4001;SDS011;2015;48.670;9.060;2023-02-15T12:07:57;9.60;;;8.60;;
4001;SDS011;2015;48.670;9.060;2023-02-15T12:10:36;10.40;;;9.30;;
4001;SDS011;2015;48.670;9.060;2023-02-15T12:13:17;12.80;;;8.30;;
4001;SDS011;2015;48.670;9.060;2023-02-15T12:15:52;12.30;;;9.80;;
4001;SDS011;2015;48.670;9.060;2023-02-15T12:21:15;11.47;;;9.40;;
4001;SDS011;2015;48.670;9.060;2023-02-15T12:24:19;10.40;;;8.60;;
4001;SDS011;2015;48.670;9.060;2023-02-15T12:29:39;11.50;;;8.40;;
4001;SDS011;2015;48.670;9.060;2023-02-15T12:32:19;10.40;;;9.30;;
4001;SDS011;2015;48.670;9.060;2023-02-15T12:34:59;12.33;;;9.93;;
4001;SDS011;2015;48.670;9.060;2023-02-15T12:37:55;10.03;;;8.13;;
4001;SDS011;2015;48.670;9.060;2023-02-15T12:40:32;14.90;;;9.37;;
4001;SDS011;2015;48.670;9.060;2023-02-15T12:43:08;8.67;;;7.37;;
4001;SDS011;2015;48.670;9.060;2023-02-15T12:46:20;9.07;;;8.20;;
4001;SDS011;2015;48.670;9.060;2023-02-15T12:51:50;19.80;;;14.87;;
4001;SDS011;2015;48.670;9.060;2023-02-15T12:57:29;16.90;;;12.37;;
4001;SDS011;2015;48.670;9.060;2023-02-15T13:00:05;17.27;;;13.37;;
4001;SDS011;2015;48.670;9.060;2023-02-15T13:02:57;25.60;;;16.60;;
4001;SDS011;2015;48.670;9.060;2023-02-15T13:05:32;26.50;;;17.20;;
4001;SDS011;2015;48.670;9.060;2023-02-15T13:08:19;29.93;;;19.77;;
4001;SDS011;2015;48.670;9.060;2023-02-15T13:11:12;24.50;;;17.43;;
4001;SDS011;2015;48.670;9.060;2023-02-15T13:13:51;27.83;;;18.37;;
4001;SDS011;2015;48.670;9.060;2023-02-15T13:16:30;25.10;;;18.90;;
4001;SDS011;2015;48.670;9.060;2023-02-15T13:19:50;24.67;;;18.53;;
4001;SDS011;2015;48.670;9.060;2023-02-15T13:22:06;20.80;;;17.23;;
4001;SDS011;2015;48.670;9.060;2023-02-15T13:24:46;24.03;;;17.07;;
4001;SDS011;2015;48.670;9.060;2023-02-15T13:27:22;19.30;;;15.60;;
4001;SDS011;2015;48.670;9.060;2023-02-15T13:29:58;22.40;;;15.03;;
4001;SDS011;2015;48.670;9.060;2023-02-15T13:32:34;21.27;;;14.93;;
4001;SDS011;2015;48.670;9.060;2023-02-15T13:35:15;18.90;;;15.90;;
4001;SDS011;2015;48.670;9.060;2023-02-15T13:43:02;24.07;;;15.63;;
4001;SDS011;2015;48.670;9.060;2023-02-15T13:49:11;20.07;;;13.27;;
4001;SDS011;2015;48.670;9.060;2023-02-15T14:03:32;13.07;;;11.70;;
4001;SDS011;2015;48.670;9.060;2023-02-15T14:06:25;14.53;;;11.17;;
4001;SDS011;2015;48.670;9.060;2023-02-15T14:12:19;19.57;;;15.10;;
4001;SDS011;2015;48.670;9.060;2023-02-15T14:20:39;25.60;;;15.30;;
4001;SDS011;2015;48.670;9.060;2023-02-15T14:26:27;19.43;;;16.90;;
4001;SDS011;2015;48.670;9.060;2023-02-15T14:29:07;19.83;;;15.43;;
4001;SDS011;2015;48.670;9.060;2023-02-15T14:31:55;24.23;;;16.27;;
4001;SDS011;2015;48.670;9.060;2023-02-15T14:37:08;20.47;;;16.03;;
4001;SDS011;2015;48.670;9.060;2023-02-15T14:39:57;24.33;;;19.47;;
4001;SDS011;2015;48.670;9.060;2023-02-15T14:45:38;31.17;;;19.77;;
4001;SDS011;2015;48.670;9.060;2023-02-15T14:48:28;33.10;;;19.93;;
4001;SDS011;2015;48.670;9.060;2023-02-15T14:51:04;27.57;;;19.53;;
4001;SDS011;2015;48.670;9.060;2023-02-15T14:53:37;30.77;;;20.90;;
4001;SDS011;2015;48.670;9.060;2023-02-15T15:04:02;22.20;;;17.90;;
4001;SDS011;2015;48.670;9.060;2023-02-15T15:06:41;19.57;;;17.10;;
4001;SDS011;2015;48.670;9.060;2023-02-15T15:09:19;28.60;;;18.00;;
4001;SDS011;2015;48.670;9.060;2023-02-15T15:12:18;31.17;;;18.50;;
4001;SDS011;2015;48.670;9.060;2023-02-15T15:15:07;23.47;;;18.20;;
4001;SDS011;2015;48.670;9.060;2023-02-15T15:17:52;29.13;;;18.57;;
4001;SDS011;2015;48.670;9.060;2023-02-15T15:25:55;20.53;;;13.27;;
4001;SDS011;2015;48.670;9.060;2023-02-15T15:48:38;16.87;;;11.37;;
4001;SDS011;2015;48.670;9.060;2023-02-15T15:51:17;13.57;;;11.03;;
4001;SDS011;2015;48.670;9.060;2023-02-15T15:53:50;14.60;;;11.83;;
4001;SDS011;2015;48.670;9.060;2023-02-15T15:56:26;16.00;;;12.80;;
4001;SDS011;2015;48.670;9.060;2023-02-15T15:59:07;15.10;;;12.40;;
4001;SDS011;2015;48.670;9.060;2023-02-15T16:01:47;21.67;;;14.67;;
4001;SDS011;2015;48.670;9.060;2023-02-15T16:12:26;14.27;;;11.50;;
4001;SDS011;2015;48.670;9.060;2023-02-15T16:15:13;14.33;;;10.97;;
4001;SDS011;2015;48.670;9.060;2023-02-15T16:17:47;14.03;;;10.67;;
4001;SDS011;2015;48.670;9.060;2023-02-15T16:20:30;13.00;;;11.50;;
4001;SDS011;2015;48.670;9.060;2023-02-15T16:28:29;16.97;;;11.30;;
4001;SDS011;2015;48.670;9.060;2023-02-15T16:31:05;18.13;;;11.97;;
4001;SDS011;2015;48.670;9.060;2023-02-15T16:33:42;16.70;;;11.93;;
4001;SDS011;2015;48.670;9.060;2023-02-15T16:36:26;16.00;;;11.93;;
4001;SDS011;2015;48.670;9.060;2023-02-15T16:41:37;19.67;;;12.10;;
4001;SDS011;2015;48.670;9.060;2023-02-15T16:44:17;13.43;;;12.03;;
4001;SDS011;2015;48.670;9.060;2023-02-15T16:46:51;18.47;;;12.50;;
4001;SDS011;2015;48.670;9.060;2023-02-15T16:49:25;16.33;;;13.33;;
4001;SDS011;2015;48.670;9.060;2023-02-15T16:52:00;21.60;;;13.40;;
4001;SDS011;2015;48.670;9.060;2023-02-15T16:54:34;14.60;;;11.20;;
4001;SDS011;2015;48.670;9.060;2023-02-15T16:57:13;15.43;;;11.80;;
4001;SDS011;2015;48.670;9.060;2023-02-15T16:59:49;18.10;;;13.13;;
4001;SDS011;2015;48.670;9.060;2023-02-15T17:02:24;13.40;;;12.00;;
4001;SDS011;2015;48.670;9.060;2023-02-15T17:05:18;14.37;;;12.87;;
4001;SDS011;2015;48.670;9.060;2023-02-15T17:11:01;19.00;;;13.77;;
4001;SDS011;2015;48.670;9.060;2023-02-15T17:13:34;18.07;;;13.70;;
4001;SDS011;2015;48.670;9.060;2023-02-15T17:16:20;12.87;;;11.23;;
4001;SDS011;2015;48.670;9.060;2023-02-15T17:18:57;19.37;;;13.20;;
4001;SDS011;2015;48.670;9.060;2023-02-15T17:21:45;19.17;;;14.17;;
4001;SDS011;2015;48.670;9.060;2023-02-15T17:24:44;22.30;;;14.57;;
4001;SDS011;2015;48.670;9.060;2023-02-15T17:27:20;19.87;;;15.00;;
4001;SDS011;2015;48.670;9.060;2023-02-15T17:29:56;18.70;;;13.43;;
4001;SDS011;2015;48.670;9.060;2023-02-15T17:32:30;19.33;;;13.97;;
4001;SDS011;2015;48.670;9.060;2023-02-15T17:35:08;17.37;;;15.53;;
4001;SDS011;2015;48.670;9.060;2023-02-15T17:37:54;21.80;;;16.43;;
4001;SDS011;2015;48.670;9.060;2023-02-15T17:40:35;21.80;;;16.00;;
4001;SDS011;2015;48.670;9.060;2023-02-15T17:43:08;20.30;;;14.90;;
4001;SDS011;2015;48.670;9.060;2023-02-15T17:45:41;17.93;;;15.27;;
4001;SDS011;2015;48.670;9.060;2023-02-15T17:48:26;19.90;;;14.77;;
4001;SDS011;2015;48.670;9.060;2023-02-15T17:51:05;19.20;;;13.33;;
4001;SDS011;2015;48.670;9.060;2023-02-15T17:53:42;21.60;;;14.23;;
4001;SDS011;2015;48.670;9.060;2023-02-15T17:56:33;20.57;;;13.80;;
4001;SDS011;2015;48.670;9.060;2023-02-15T17:59:06;21.63;;;14.00;;
4001;SDS011;2015;48.670;9.060;2023-02-15T18:01:43;24.73;;;15.00;;
4001;SDS011;2015;48.670;9.060;2023-02-15T18:04:36;21.05;;;14.10;;
4001;SDS011;2015;48.670;9.060;2023-02-15T18:07:26;17.87;;;12.47;;
4001;SDS011;2015;48.670;9.060;2023-02-15T18:10:17;19.40;;;12.70;;
4001;SDS011;2015;48.670;9.060;2023-02-15T18:13:08;20.95;;;12.55;;
4001;SDS011;2015;48.670;9.060;2023-02-15T18:15:40;15.83;;;12.90;;
4001;SDS011;2015;48.670;9.060;2023-02-15T18:18:11;15.00;;;11.37;;
4001;SDS011;2015;48.670;9.060;2023-02-15T18:20:44;18.00;;;12.00;;
4001;SDS011;2015;48.670;9.060;2023-02-15T18:23:16;21.43;;;12.83;;
4001;SDS011;2015;48.670;9.060;2023-02-15T18:25:48;16.23;;;12.60;;
4001;SDS011;2015;48.670;9.060;2023-02-15T18:28:19;20.43;;;12.23;;
4001;SDS011;2015;48.670;9.060;2023-02-15T18:30:51;17.50;;;12.37;;
4001;SDS011;2015;48.670;9.060;2023-02-15T18:36:12;16.50;;;13.43;;
4001;SDS011;2015;48.670;9.060;2023-02-15T18:38:48;14.73;;;10.63;;
4001;SDS011;2015;48.670;9.060;2023-02-15T18:41:21;16.27;;;11.70;;
4001;SDS011;2015;48.670;9.060;2023-02-15T18:43:53;17.20;;;11.43;;
4001;SDS011;2015;48.670;9.060;2023-02-15T18:46:25;17.20;;;12.97;;
4001;SDS011;2015;48.670;9.060;2023-02-15T18:48:57;17.10;;;12.80;;
4001;SDS011;2015;48.670;9.060;2023-02-15T18:51:29;16.63;;;11.70;;
4001;SDS011;2015;48.670;9.060;2023-02-15T18:54:02;19.23;;;13.32;;
4001;SDS011;2015;48.670;9.060;2023-02-15T18:56:34;16.40;;;12.33;;
4001;SDS011;2015;48.670;9.060;2023-02-15T18:59:10;15.70;;;12.73;;